createdAt,value
2022-11-18T00:00:44.551Z,-0.20
2022-11-18T00:06:08.319Z,-0.20
2022-11-18T00:11:49.258Z,-0.20
2022-11-18T00:17:11.353Z,-0.20
2022-11-18T00:22:33.424Z,-0.10
2022-11-18T00:27:56.368Z,-0.10
2022-11-18T00:33:18.443Z,-0.10
2022-11-18T00:38:41.124Z,-0.20
2022-11-18T00:44:09.183Z,-0.10
2022-11-18T00:49:31.636Z,-0.10
2022-11-18T00:54:53.711Z,-0.10
2022-11-18T01:00:15.869Z,-0.10
2022-11-18T01:05:38.798Z,-0.10
2022-11-18T01:11:21.268Z,-0.20
2022-11-18T01:16:43.576Z,-0.10
2022-11-18T01:22:05.716Z,-0.10
2022-11-18T01:27:27.967Z,-0.10
2022-11-18T01:32:50.208Z,-0.10
2022-11-18T01:38:14.075Z,-0.10
2022-11-18T01:43:56.326Z,-0.20
2022-11-18T01:49:19.129Z,-0.20
2022-11-18T01:54:44.781Z,-0.20
2022-11-18T02:00:07.860Z,-0.10
2022-11-18T02:05:30.833Z,-0.20
2022-11-18T02:10:52.949Z,-0.20
2022-11-18T02:16:22.844Z,-0.20
2022-11-18T02:22:05.908Z,-0.30
2022-11-18T02:27:58.819Z,-0.30
2022-11-18T02:33:32.085Z,-0.30
2022-11-18T02:39:03.219Z,-0.30
2022-11-18T02:44:27.160Z,-0.40
2022-11-18T02:49:53.996Z,-0.50
2022-11-18T02:55:18.265Z,-0.50
2022-11-18T03:00:40.516Z,-0.50
2022-11-18T03:06:29.617Z,-0.50
2022-11-18T03:12:11.618Z,-0.50
2022-11-18T03:17:57.625Z,-0.50
2022-11-18T03:23:44.176Z,-0.50
2022-11-18T03:29:17.984Z,-0.50
2022-11-18T03:34:45.752Z,-0.50
2022-11-18T03:40:21.451Z,-0.60
2022-11-18T03:45:49.381Z,-0.60
2022-11-18T03:51:16.399Z,-0.60
2022-11-18T03:56:46.352Z,-0.60
2022-11-18T04:02:14.810Z,-0.60
2022-11-18T04:07:43.424Z,-0.60
2022-11-18T04:13:15.365Z,-0.70
2022-11-18T04:18:37.453Z,-0.70
2022-11-18T04:23:59.549Z,-0.70
2022-11-18T04:29:21.630Z,-0.70
2022-11-18T04:34:44.043Z,-0.70
2022-11-18T04:40:06.725Z,-0.80
2022-11-18T04:45:28.803Z,-0.70
2022-11-18T04:50:50.856Z,-0.70
2022-11-18T04:56:12.920Z,-0.70
2022-11-18T05:01:35.403Z,-0.70
2022-11-18T05:06:58.032Z,-0.70
2022-11-18T05:12:39.060Z,-0.70
2022-11-18T05:18:01.112Z,-0.70
2022-11-18T05:23:23.261Z,-0.70
2022-11-18T05:28:45.407Z,-0.70
2022-11-18T05:34:07.541Z,-0.60
2022-11-18T05:39:29.676Z,-0.60
2022-11-18T05:44:57.773Z,-0.70
2022-11-18T05:50:21.587Z,-0.70
2022-11-18T05:56:22.260Z,-0.70
2022-11-18T06:02:16.655Z,-0.70
2022-11-18T06:07:43.059Z,-0.70
2022-11-18T06:13:09.750Z,-0.70
2022-11-18T06:18:33.034Z,-0.70
2022-11-18T06:23:55.615Z,-0.70
2022-11-18T06:29:26.004Z,-0.60
2022-11-18T06:34:49.676Z,-0.60
2022-11-18T06:40:12.381Z,-0.60
2022-11-18T06:45:34.459Z,-0.60
2022-11-18T06:50:56.524Z,-0.60
2022-11-18T06:56:20.356Z,-0.60
2022-11-18T07:01:42.481Z,-0.60
2022-11-18T07:07:05.721Z,-0.50
2022-11-18T07:12:28.798Z,-0.50
2022-11-18T07:17:32.310Z,-0.50
2022-11-18T07:22:35.416Z,-0.50
2022-11-18T07:27:38.541Z,-0.50
2022-11-18T07:32:41.492Z,-0.60
2022-11-18T07:37:50.805Z,-0.50
2022-11-18T07:42:55.141Z,-0.50
2022-11-18T07:47:58.682Z,-0.60
2022-11-18T07:53:01.094Z,-0.60
2022-11-18T07:58:04.020Z,-0.60
2022-11-18T08:03:06.895Z,-0.50
2022-11-18T08:08:09.585Z,-0.60
2022-11-18T08:13:12.489Z,-0.60
2022-11-18T08:18:15.434Z,-0.50
2022-11-18T08:23:18.899Z,-0.50
2022-11-18T08:28:22.767Z,-0.50
2022-11-18T08:33:29.163Z,-0.50
2022-11-18T08:38:32.105Z,-0.40
2022-11-18T08:43:38.182Z,-0.50
2022-11-18T08:48:40.976Z,-0.40
2022-11-18T08:53:43.876Z,-0.50
2022-11-18T08:58:47.290Z,-0.40
2022-11-18T09:03:50.495Z,-0.30
2022-11-18T09:08:54.347Z,-0.30
2022-11-18T09:19:46.264Z,-0.40
2022-11-18T09:24:47.361Z,-0.40
2022-11-18T09:29:50.253Z,-0.30
2022-11-18T09:34:53.054Z,-0.40
2022-11-18T09:39:55.279Z,-0.40
2022-11-18T09:45:00.084Z,-0.40
2022-11-18T09:50:26.674Z,-0.50
2022-11-18T09:55:29.700Z,-0.40
2022-11-18T10:00:31.648Z,-0.30
2022-11-18T10:06:11.435Z,-0.40
2022-11-18T10:11:37.286Z,-0.50
2022-11-18T10:17:09.043Z,-0.40
2022-11-18T10:22:24.582Z,-0.30
2022-11-18T11:10:13.351Z,-0.60
2022-11-18T11:15:42.131Z,-0.60
2022-11-18T11:21:16.215Z,-0.60
2022-11-18T11:33:18.048Z,-0.60
2022-11-18T11:39:05.227Z,-0.80
2022-11-18T11:44:58.549Z,-1.10
2022-11-18T11:50:28.842Z,-1.20
2022-11-18T11:56:08.530Z,-1.30
2022-11-18T12:01:55.694Z,-1.30
2022-11-18T12:07:29.448Z,-1.40
2022-11-18T12:13:33.150Z,-1.30
2022-11-18T12:19:08.408Z,-1.40
2022-11-18T12:24:33.625Z,-1.40
2022-11-18T12:30:02.435Z,-1.40
2022-11-18T12:35:29.100Z,-1.40
2022-11-18T12:41:00.974Z,-1.40
2022-11-18T12:46:27.519Z,-1.50
2022-11-18T12:51:57.669Z,-1.50
2022-11-18T12:57:45.322Z,-1.50
2022-11-18T13:03:26.665Z,-1.60
2022-11-18T13:09:06.226Z,-1.60
2022-11-18T13:15:16.546Z,-1.60
2022-11-18T13:20:42.798Z,-1.50
2022-11-18T13:26:34.440Z,-1.50
2022-11-18T13:32:30.143Z,-1.50
2022-11-18T13:38:00.932Z,-1.70
2022-11-18T13:43:33.633Z,-1.70
2022-11-18T13:49:01.065Z,-1.70
2022-11-18T13:54:33.506Z,-1.70
2022-11-18T14:00:01.665Z,-1.70
2022-11-18T14:05:35.107Z,-1.70
2022-11-18T14:11:02.788Z,-1.70
2022-11-18T14:16:35.075Z,-1.70
2022-11-18T14:28:19.371Z,-1.80
2022-11-18T14:33:42.218Z,-1.70
2022-11-18T14:39:26.986Z,-1.70
2022-11-18T14:44:55.498Z,-1.70
2022-11-18T14:50:19.321Z,-1.70
2022-11-18T14:55:44.500Z,-1.70
2022-11-18T15:01:15.061Z,-1.70
2022-11-18T15:07:09.583Z,-1.70
2022-11-18T15:12:33.342Z,-1.70
2022-11-18T15:18:06.590Z,-1.70
2022-11-18T15:23:30.367Z,-1.70
2022-11-18T15:28:56.025Z,-1.70
2022-11-18T15:34:29.438Z,-1.70
2022-11-18T15:39:53.220Z,-1.70
2022-11-18T15:45:16.165Z,-1.70
2022-11-18T15:50:38.357Z,-1.70
2022-11-18T15:56:19.006Z,-1.60
2022-11-18T16:01:43.873Z,-1.60
2022-11-18T16:07:06.471Z,-1.60
2022-11-18T16:12:46.694Z,-1.60
2022-11-18T16:18:08.928Z,-1.70
2022-11-18T16:23:30.985Z,-1.70
2022-11-18T16:28:53.727Z,-1.70
2022-11-18T16:34:20.441Z,-1.70
2022-11-18T16:39:42.549Z,-1.70
2022-11-18T16:45:05.212Z,-1.70
2022-11-18T16:50:27.279Z,-1.70
2022-11-18T16:55:49.362Z,-1.70
2022-11-18T17:01:24.621Z,-1.80
2022-11-18T17:06:50.606Z,-1.80
2022-11-18T17:12:12.723Z,-1.80
2022-11-18T17:17:34.906Z,-1.80
2022-11-18T17:22:56.973Z,-1.80
2022-11-18T17:28:19.050Z,-1.80
2022-11-18T17:33:42.705Z,-1.80
2022-11-18T17:39:04.782Z,-1.80
2022-11-18T17:44:29.931Z,-1.80
2022-11-18T17:49:52.046Z,-1.80
2022-11-18T17:55:14.187Z,-1.80
2022-11-18T18:00:37.022Z,-1.80
2022-11-18T18:06:03.406Z,-1.80
2022-11-18T18:11:26.442Z,-1.80
2022-11-18T18:16:51.942Z,-1.80
2022-11-18T18:22:14.162Z,-1.80
2022-11-18T18:27:36.237Z,-1.80
2022-11-18T18:32:58.317Z,-1.80
2022-11-18T18:38:20.376Z,-1.80
2022-11-18T18:43:42.567Z,-1.90
2022-11-18T18:49:05.951Z,-1.90
2022-11-18T18:54:28.023Z,-1.90
2022-11-18T18:59:50.117Z,-1.90
2022-11-18T19:05:12.191Z,-1.90
2022-11-18T19:10:40.472Z,-1.90
2022-11-18T19:16:06.444Z,-1.90
2022-11-18T19:21:28.769Z,-1.90
2022-11-18T19:26:52.002Z,-1.90
2022-11-18T19:32:14.979Z,-2.00
2022-11-18T19:37:37.650Z,-2.00
2022-11-18T19:42:59.738Z,-2.00
2022-11-18T19:48:22.058Z,-2.00
2022-11-18T19:53:44.579Z,-1.90
2022-11-18T19:59:06.692Z,-2.00
2022-11-18T20:04:28.786Z,-2.00
2022-11-18T20:09:50.922Z,-1.90
2022-11-18T20:15:13.011Z,-2.00
2022-11-18T20:20:37.306Z,-2.00
2022-11-18T20:26:03.085Z,-2.00
2022-11-18T20:31:26.554Z,-2.00
2022-11-18T20:36:51.959Z,-2.00
2022-11-18T20:42:32.543Z,-2.00
2022-11-18T20:47:54.650Z,-2.00
2022-11-18T20:53:17.202Z,-2.10
2022-11-18T20:58:39.501Z,-2.00
2022-11-18T21:04:03.555Z,-2.10
2022-11-18T21:09:26.450Z,-2.10
2022-11-18T21:14:48.559Z,-2.10
2022-11-18T21:20:30.806Z,-2.10
2022-11-18T21:25:53.045Z,-2.10
2022-11-18T21:31:17.274Z,-2.10
2022-11-18T21:36:46.903Z,-2.10
2022-11-18T21:42:12.385Z,-2.10
2022-11-18T21:47:34.477Z,-2.10
2022-11-18T21:52:56.805Z,-2.10
2022-11-18T21:58:18.995Z,-2.20
2022-11-18T22:03:43.615Z,-2.20
2022-11-18T22:09:06.108Z,-2.40
2022-11-18T22:14:28.263Z,-2.40
2022-11-18T22:19:50.378Z,-2.50
2022-11-18T22:25:12.764Z,-2.50
2022-11-18T22:30:34.869Z,-2.50
2022-11-18T22:36:04.856Z,-2.40
2022-11-18T22:41:47.416Z,-2.20
2022-11-18T22:47:09.535Z,-2.30
2022-11-18T22:52:31.631Z,-2.30
2022-11-18T22:57:53.729Z,-2.20
2022-11-18T23:03:15.809Z,-2.20
2022-11-18T23:08:17.701Z,-2.00
2022-11-18T23:13:38.145Z,-1.90
2022-11-18T23:18:39.958Z,-1.70
2022-11-18T23:23:42.185Z,-2.00
2022-11-18T23:28:44.025Z,-1.90
2022-11-18T23:33:46.634Z,-1.80
2022-11-18T23:38:48.602Z,-1.80
2022-11-18T23:43:52.045Z,-1.90
2022-11-18T23:48:54.206Z,-2.00
2022-11-18T23:53:57.160Z,-2.00
2022-11-18T23:58:59.014Z,-2.00
